createdAt,value
2024-05-09T00:01:55.375Z,0.00
2024-05-09T00:07:10.278Z,0.00
2024-05-09T00:12:27.163Z,0.00
2024-05-09T00:17:42.426Z,0.00
2024-05-09T00:22:57.150Z,0.00
2024-05-09T00:28:12.298Z,0.00
2024-05-09T00:33:29.175Z,0.00
2024-05-09T00:38:43.965Z,0.00
2024-05-09T00:43:58.698Z,0.00
2024-05-09T00:49:13.481Z,0.00
2024-05-09T00:54:28.375Z,0.00
2024-05-09T00:59:45.307Z,0.00
2024-05-09T01:05:00.187Z,0.00
2024-05-09T01:10:21.169Z,0.00
2024-05-09T01:15:29.800Z,0.00
2024-05-09T01:20:45.567Z,0.00
2024-05-09T01:25:59.588Z,0.00
2024-05-09T01:31:14.530Z,0.00
2024-05-09T01:36:29.490Z,0.00
2024-05-09T01:41:44.289Z,0.00
2024-05-09T01:46:59.187Z,0.00
2024-05-09T01:52:14.055Z,0.00
2024-05-09T01:57:28.826Z,0.00
2024-05-09T02:02:43.776Z,0.00
2024-05-09T02:07:58.589Z,0.00
2024-05-09T02:13:13.568Z,0.00
2024-05-09T02:18:28.548Z,0.00
2024-05-09T02:23:43.286Z,0.00
2024-05-09T02:28:58.280Z,0.00
2024-05-09T02:34:13.222Z,0.00
2024-05-09T02:39:27.915Z,0.00
2024-05-09T02:44:42.880Z,0.00
2024-05-09T02:49:57.825Z,0.00
2024-05-09T02:55:12.602Z,0.00
2024-05-09T03:00:36.620Z,0.00
2024-05-09T03:05:42.635Z,0.00
2024-05-09T03:10:57.469Z,0.00
2024-05-09T03:16:12.172Z,0.00
2024-05-09T03:21:26.937Z,0.00
2024-05-09T03:26:41.846Z,1.00
2024-05-09T03:31:56.782Z,2.00
2024-05-09T03:37:11.559Z,0.00
2024-05-09T03:42:28.417Z,2.00
2024-05-09T03:47:45.512Z,10.00
2024-05-09T03:53:00.279Z,24.00
2024-05-09T03:58:14.941Z,39.00
2024-05-09T04:03:30.163Z,46.00
2024-05-09T04:08:44.899Z,61.00
2024-05-09T04:13:59.747Z,80.00
2024-05-09T04:19:14.858Z,98.00
2024-05-09T04:24:29.530Z,123.00
2024-05-09T04:29:44.404Z,149.00
2024-05-09T04:34:59.336Z,170.00
2024-05-09T04:40:23.956Z,193.00
2024-05-09T04:45:29.278Z,216.00
2024-05-09T04:50:44.337Z,238.00
2024-05-09T04:55:59.793Z,260.00
2024-05-09T05:01:14.730Z,281.00
2024-05-09T05:06:29.381Z,309.00
2024-05-09T05:11:44.427Z,329.00
2024-05-09T05:16:59.743Z,362.00
2024-05-09T05:22:14.508Z,384.00
2024-05-09T05:27:29.307Z,419.00
2024-05-09T05:32:44.324Z,445.00
2024-05-09T05:37:59.185Z,480.00
2024-05-09T05:43:14.026Z,507.00
2024-05-09T05:48:29.351Z,532.00
2024-05-09T05:53:44.323Z,603.00
2024-05-09T05:58:58.978Z,647.00
2024-05-09T06:04:13.952Z,682.00
2024-05-09T06:09:28.858Z,793.00
2024-05-09T06:14:43.684Z,873.00
2024-05-09T06:19:58.564Z,835.00
2024-05-09T06:25:13.546Z,892.00
2024-05-09T06:30:37.124Z,1081.00
2024-05-09T06:35:43.622Z,1030.00
2024-05-09T06:40:58.336Z,1073.00
2024-05-09T06:46:13.201Z,955.00
2024-05-09T06:51:28.119Z,1261.00
2024-05-09T06:56:43.106Z,1392.00
2024-05-09T07:01:57.995Z,1530.00
2024-05-09T07:07:13.247Z,1541.00
2024-05-09T07:13:06.714Z,1657.00
2024-05-09T07:17:43.115Z,1476.00
2024-05-09T07:22:57.888Z,1400.00
2024-05-09T07:28:12.701Z,1613.00
2024-05-09T07:33:27.647Z,1822.00
2024-05-09T07:38:44.435Z,1884.00
2024-05-09T07:43:59.306Z,1606.00
2024-05-09T07:50:56.001Z,1194.00
2024-05-09T07:54:31.840Z,1174.00
2024-05-09T07:59:46.909Z,1197.00
2024-05-09T08:05:01.455Z,1239.00
2024-05-09T08:10:21.917Z,1301.00
2024-05-09T08:15:30.945Z,1384.00
2024-05-09T08:20:45.754Z,1408.00
2024-05-09T08:26:00.593Z,1469.00
2024-05-09T08:31:15.787Z,1534.00
2024-05-09T08:36:30.574Z,1647.00
2024-05-09T08:41:45.408Z,1840.00
2024-05-09T08:47:01.128Z,1841.00
2024-05-09T08:52:15.438Z,1905.00
2024-05-09T08:57:30.338Z,1867.00
2024-05-09T09:02:45.324Z,1979.00
2024-05-09T09:08:00.181Z,2019.00
2024-05-09T09:13:15.084Z,2015.00
2024-05-09T09:18:30.080Z,2059.00
2024-05-09T09:23:44.778Z,2301.00
2024-05-09T09:28:59.595Z,2626.00
2024-05-09T09:34:14.614Z,2320.00
2024-05-09T09:39:29.661Z,2540.00
2024-05-09T09:44:47.813Z,2551.00
2024-05-09T09:49:59.237Z,2943.00
2024-05-09T09:55:14.269Z,2966.00
2024-05-09T10:00:33.074Z,3179.00
2024-05-09T10:05:46.395Z,3388.00
2024-05-09T10:10:59.029Z,14761.00
2024-05-09T10:16:13.765Z,77977.00
2024-05-09T10:21:28.624Z,78956.00
2024-05-09T10:26:43.295Z,81854.00
2024-05-09T10:31:58.186Z,79194.00
2024-05-09T10:37:13.197Z,78826.00
2024-05-09T10:42:28.024Z,79918.00
2024-05-09T10:47:42.914Z,77343.00
2024-05-09T10:52:57.641Z,30497.00
2024-05-09T10:58:12.666Z,77447.00
2024-05-09T11:03:27.523Z,76649.00
2024-05-09T11:08:42.282Z,77886.00
2024-05-09T11:13:57.194Z,76921.00
2024-05-09T11:19:12.245Z,76744.00
2024-05-09T11:24:26.827Z,78057.00
2024-05-09T11:29:41.770Z,77742.00
2024-05-09T11:34:56.616Z,74924.00
2024-05-09T11:40:17.067Z,43564.00
2024-05-09T11:45:26.210Z,6118.00
2024-05-09T11:50:41.148Z,5507.00
2024-05-09T11:55:56.039Z,4833.00
2024-05-09T12:01:12.022Z,4811.00
2024-05-09T12:06:25.902Z,4877.00
2024-05-09T12:11:40.764Z,4014.00
2024-05-09T12:16:55.872Z,3873.00
2024-05-09T12:22:10.783Z,3823.00
2024-05-09T12:27:25.688Z,3681.00
2024-05-09T12:32:40.625Z,3705.00
2024-05-09T12:37:57.233Z,3366.00
2024-05-09T12:43:12.328Z,3309.00
2024-05-09T12:48:27.144Z,3171.00
2024-05-09T12:53:41.940Z,3056.00
2024-05-09T12:58:56.802Z,2949.00
2024-05-09T13:04:11.787Z,2688.00
2024-05-09T13:09:26.447Z,2702.00
2024-05-09T13:14:41.351Z,2512.00
2024-05-09T13:19:56.167Z,2650.00
2024-05-09T13:25:11.130Z,2310.00
2024-05-09T13:30:33.781Z,2164.00
2024-05-09T13:35:42.776Z,2163.00
2024-05-09T13:40:55.747Z,2175.00
2024-05-09T13:46:10.794Z,2023.00
2024-05-09T13:51:25.532Z,1942.00
2024-05-09T13:56:40.466Z,2013.00
2024-05-09T14:01:57.396Z,2104.00
2024-05-09T14:07:12.201Z,1771.00
2024-05-09T14:12:27.095Z,1575.00
2024-05-09T14:17:41.947Z,1574.00
2024-05-09T14:22:56.729Z,1601.00
2024-05-09T14:28:12.579Z,1766.00
2024-05-09T14:33:27.105Z,1929.00
2024-05-09T14:38:41.442Z,1987.00
2024-05-09T14:43:56.384Z,2058.00
2024-05-09T14:49:12.441Z,2066.00
2024-05-09T14:54:26.185Z,1933.00
2024-05-09T14:59:41.067Z,1707.00
2024-05-09T15:04:55.918Z,1325.00
2024-05-09T15:10:20.349Z,1062.00
2024-05-09T15:15:27.582Z,925.00
2024-05-09T15:20:42.583Z,856.00
2024-05-09T15:25:57.283Z,942.00
2024-05-09T15:31:12.257Z,1125.00
2024-05-09T15:36:27.129Z,1302.00
2024-05-09T15:41:41.938Z,1362.00
2024-05-09T15:46:56.811Z,1379.00
2024-05-09T15:52:11.810Z,1350.00
2024-05-09T15:57:26.744Z,1314.00
2024-05-09T16:02:42.028Z,1267.00
2024-05-09T16:07:56.645Z,1261.00
2024-05-09T16:13:11.870Z,1270.00
2024-05-09T16:18:26.527Z,1252.00
2024-05-09T16:23:41.330Z,1189.00
2024-05-09T16:28:58.065Z,1089.00
2024-05-09T16:34:12.982Z,983.00
2024-05-09T16:39:27.769Z,901.00
2024-05-09T16:44:43.594Z,856.00
2024-05-09T16:49:57.646Z,841.00
2024-05-09T16:55:12.609Z,829.00
2024-05-09T17:00:38.151Z,808.00
2024-05-09T17:05:43.004Z,776.00
2024-05-09T17:10:57.252Z,739.00
2024-05-09T17:16:12.030Z,720.00
2024-05-09T17:21:26.934Z,700.00
2024-05-09T17:26:42.896Z,672.00
2024-05-09T17:31:56.796Z,631.00
2024-05-09T17:37:11.808Z,582.00
2024-05-09T17:42:26.577Z,538.00
2024-05-09T17:47:43.503Z,477.00
2024-05-09T17:52:58.362Z,437.00
2024-05-09T17:58:13.322Z,400.00
2024-05-09T18:03:28.391Z,342.00
2024-05-09T18:08:43.129Z,329.00
2024-05-09T18:13:58.035Z,301.00
2024-05-09T18:19:13.042Z,279.00
2024-05-09T18:24:27.731Z,235.00
2024-05-09T18:29:42.505Z,177.00
2024-05-09T18:34:57.559Z,142.00
2024-05-09T18:40:20.655Z,123.00
2024-05-09T18:45:27.310Z,93.00
2024-05-09T18:50:42.137Z,75.00
2024-05-09T18:55:56.833Z,59.00
2024-05-09T19:01:11.933Z,41.00
2024-05-09T19:06:26.713Z,28.00
2024-05-09T19:11:41.653Z,16.00
2024-05-09T19:16:56.562Z,11.00
2024-05-09T19:22:11.372Z,6.00
2024-05-09T19:27:26.185Z,1.00
2024-05-09T19:32:41.790Z,1.00
2024-05-09T19:37:56.565Z,0.00
2024-05-09T19:43:11.632Z,0.00
2024-05-09T19:48:26.532Z,0.00
2024-05-09T19:53:41.200Z,0.00
2024-05-09T19:58:56.118Z,0.00
2024-05-09T20:04:11.245Z,0.00
2024-05-09T20:09:25.926Z,0.00
2024-05-09T20:14:40.877Z,0.00
2024-05-09T20:19:55.769Z,0.00
2024-05-09T20:25:10.793Z,0.00
2024-05-09T20:30:31.544Z,0.00
2024-05-09T20:35:40.340Z,0.00
2024-05-09T20:40:55.524Z,0.00
2024-05-09T20:46:10.239Z,0.00
2024-05-09T20:51:26.398Z,0.00
2024-05-09T20:56:39.964Z,0.00
2024-05-09T21:01:55.033Z,0.00
2024-05-09T21:07:09.957Z,0.00
2024-05-09T21:12:24.716Z,0.00
2024-05-09T21:17:39.559Z,0.00
2024-05-09T21:22:54.330Z,0.00
2024-05-09T21:28:09.322Z,0.00
2024-05-09T21:33:24.173Z,0.00
2024-05-09T21:38:38.953Z,0.00
2024-05-09T21:43:53.875Z,0.00
2024-05-09T21:49:08.837Z,0.00
2024-05-09T21:54:23.763Z,0.00
2024-05-09T21:59:38.711Z,0.00
2024-05-09T22:04:53.711Z,0.00
2024-05-09T22:10:15.967Z,0.00
2024-05-09T22:15:23.143Z,0.00
2024-05-09T22:20:39.599Z,0.00
2024-05-09T22:25:54.998Z,0.00
2024-05-09T22:31:09.839Z,0.00
2024-05-09T22:36:24.677Z,0.00
2024-05-09T22:41:39.576Z,0.00
2024-05-09T22:46:54.657Z,0.00
2024-05-09T22:52:09.590Z,0.00
2024-05-09T22:57:24.413Z,0.00
2024-05-09T23:02:39.286Z,0.00
2024-05-09T23:07:54.391Z,0.00
2024-05-09T23:13:09.393Z,0.00
2024-05-09T23:18:24.096Z,0.00
2024-05-09T23:23:38.918Z,0.00
2024-05-09T23:28:53.779Z,0.00
2024-05-09T23:34:08.907Z,0.00
2024-05-09T23:39:23.728Z,0.00
2024-05-09T23:44:40.611Z,0.00
2024-05-09T23:49:55.554Z,0.00
2024-05-09T23:55:10.560Z,0.00
